createdAt,value
2018-05-15T00:00:59.714Z,7.80
2018-05-15T00:03:27.139Z,8.17
2018-05-15T00:05:54.618Z,8.37
2018-05-15T00:08:22.098Z,7.90
2018-05-15T00:10:49.523Z,8.80
2018-05-15T00:13:16.987Z,8.67
2018-05-15T00:15:44.398Z,8.70
2018-05-15T00:18:12.598Z,8.50
2018-05-15T00:20:40.906Z,8.87
2018-05-15T00:23:08.442Z,8.33
2018-05-15T00:25:35.866Z,8.60
2018-05-15T00:28:04.054Z,8.63
2018-05-15T00:30:32.259Z,9.00
2018-05-15T00:32:59.712Z,8.50
2018-05-15T00:35:27.194Z,7.80
2018-05-15T00:37:54.620Z,8.80
2018-05-15T00:40:22.079Z,9.07
2018-05-15T00:42:49.506Z,9.17
2018-05-15T00:45:17.698Z,8.50
2018-05-15T00:47:45.130Z,8.10
2018-05-15T00:50:12.562Z,8.83
2018-05-15T00:52:39.986Z,8.87
2018-05-15T00:55:19.361Z,9.47
2018-05-15T00:57:47.123Z,9.20
2018-05-15T01:00:14.563Z,8.90
2018-05-15T01:02:42.942Z,8.30
2018-05-15T01:05:10.363Z,8.93
2018-05-15T01:07:37.793Z,8.63
2018-05-15T01:10:05.404Z,9.33
2018-05-15T01:12:32.870Z,8.83
2018-05-15T01:15:00.366Z,8.57
2018-05-15T01:17:27.793Z,9.13
2018-05-15T01:19:55.218Z,9.37
2018-05-15T01:22:22.693Z,9.23
2018-05-15T01:24:50.117Z,8.70
2018-05-15T01:27:18.983Z,9.20
2018-05-15T01:29:46.454Z,9.53
2018-05-15T01:32:14.645Z,9.30
2018-05-15T01:34:42.885Z,8.73
2018-05-15T01:37:10.313Z,9.97
2018-05-15T01:39:37.765Z,8.77
2018-05-15T01:44:57.815Z,8.70
2018-05-15T01:47:25.540Z,9.30
2018-05-15T01:49:53.047Z,9.23
2018-05-15T01:52:21.246Z,9.70
2018-05-15T01:54:49.445Z,9.23
2018-05-15T01:57:16.929Z,10.23
2018-05-15T01:59:45.157Z,9.53
2018-05-15T02:02:12.590Z,10.40
2018-05-15T02:04:40.782Z,9.60
2018-05-15T02:07:08.251Z,10.40
2018-05-15T02:09:35.767Z,10.80
2018-05-15T02:12:03.891Z,10.97
2018-05-15T02:14:31.703Z,9.77
2018-05-15T02:16:59.139Z,10.50
2018-05-15T02:19:26.565Z,9.77
2018-05-15T02:21:54.143Z,10.50
2018-05-15T02:24:21.602Z,10.63
2018-05-15T02:26:49.797Z,11.83
2018-05-15T02:29:17.229Z,11.20
2018-05-15T02:31:44.665Z,11.97
2018-05-15T02:34:12.142Z,11.70
2018-05-15T02:36:39.614Z,11.03
2018-05-15T02:39:07.823Z,11.23
2018-05-15T02:41:36.087Z,11.90
2018-05-15T02:44:03.719Z,11.47
2018-05-15T02:46:31.178Z,11.57
2018-05-15T02:48:58.642Z,12.33
2018-05-15T02:51:26.084Z,13.07
2018-05-15T02:53:53.518Z,12.30
2018-05-15T02:56:22.001Z,12.40
2018-05-15T02:58:49.436Z,12.27
2018-05-15T03:01:17.635Z,13.40
2018-05-15T03:03:45.142Z,13.37
2018-05-15T03:06:12.574Z,13.03
2018-05-15T03:08:40.019Z,13.70
2018-05-15T03:11:07.455Z,13.90
2018-05-15T03:13:35.666Z,14.67
2018-05-15T03:16:03.127Z,13.70
2018-05-15T03:18:30.559Z,15.03
2018-05-15T03:20:57.988Z,15.40
2018-05-15T03:23:26.197Z,15.27
2018-05-15T03:25:53.665Z,15.33
2018-05-15T03:28:21.358Z,15.33
2018-05-15T03:30:48.885Z,15.73
2018-05-15T03:33:16.594Z,14.93
2018-05-15T03:35:44.038Z,14.90
2018-05-15T03:38:11.592Z,15.17
2018-05-15T03:40:39.020Z,15.80
2018-05-15T03:43:06.761Z,15.13
2018-05-15T03:45:34.962Z,15.70
2018-05-15T03:48:02.422Z,15.07
2018-05-15T03:50:30.398Z,17.27
2018-05-15T03:52:57.834Z,16.40
2018-05-15T03:55:25.288Z,16.87
2018-05-15T03:57:54.486Z,15.80
2018-05-15T04:00:33.842Z,18.30
2018-05-15T04:03:13.282Z,16.60
2018-05-15T04:05:52.618Z,15.77
2018-05-15T04:08:20.070Z,17.17
2018-05-15T04:10:47.518Z,17.87
2018-05-15T04:13:15.728Z,17.57
2018-05-15T04:15:43.958Z,15.70
2018-05-15T04:18:11.453Z,17.73
2018-05-15T04:20:38.921Z,17.83
2018-05-15T04:23:06.464Z,18.30
2018-05-15T04:25:33.890Z,17.57
2018-05-15T04:28:01.444Z,16.70
2018-05-15T04:30:28.817Z,18.87
2018-05-15T04:32:56.263Z,17.27
2018-05-15T04:35:23.821Z,19.17
2018-05-15T04:37:51.202Z,19.30
2018-05-15T04:40:18.649Z,18.90
2018-05-15T04:42:46.074Z,19.67
2018-05-15T04:45:18.327Z,21.40
2018-05-15T04:47:45.770Z,19.47
2018-05-15T04:50:13.199Z,19.50
2018-05-15T04:52:40.742Z,20.43
2018-05-15T04:55:08.188Z,20.37
2018-05-15T04:57:35.777Z,20.77
2018-05-15T05:00:03.438Z,19.80
2018-05-15T05:02:30.914Z,19.00
2018-05-15T05:04:58.437Z,18.37
2018-05-15T05:07:25.885Z,17.40
2018-05-15T05:09:53.342Z,17.33
2018-05-15T05:12:21.534Z,16.87
2018-05-15T05:14:49.318Z,15.53
2018-05-15T05:17:16.750Z,16.97
2018-05-15T05:19:44.939Z,17.73
2018-05-15T05:22:12.402Z,15.80
2018-05-15T05:24:39.838Z,17.70
2018-05-15T05:27:07.471Z,15.30
2018-05-15T05:29:34.829Z,16.00
2018-05-15T05:32:03.031Z,15.30
2018-05-15T05:34:30.842Z,15.93
2018-05-15T05:36:58.386Z,16.03
2018-05-15T05:39:26.886Z,15.33
2018-05-15T05:41:54.340Z,15.53
2018-05-15T05:44:21.799Z,15.37
2018-05-15T05:46:49.206Z,16.00
2018-05-15T05:49:16.674Z,16.60
2018-05-15T05:51:48.336Z,15.23
2018-05-15T05:54:16.676Z,15.87
2018-05-15T05:56:44.095Z,15.18
2018-05-15T05:59:11.522Z,15.87
2018-05-15T06:01:39.002Z,13.90
2018-05-15T06:04:06.475Z,15.70
2018-05-15T06:06:33.879Z,15.85
2018-05-15T06:09:02.187Z,15.03
2018-05-15T06:11:29.625Z,13.17
2018-05-15T06:13:57.075Z,14.00
2018-05-15T06:16:25.275Z,14.37
2018-05-15T06:19:08.545Z,14.87
2018-05-15T06:21:36.165Z,14.85
2018-05-15T06:24:03.650Z,14.48
2018-05-15T06:29:05.002Z,12.85
2018-05-15T06:31:32.449Z,14.40
2018-05-15T06:33:59.913Z,15.00
2018-05-15T06:36:27.392Z,14.23
2018-05-15T06:38:54.819Z,13.68
2018-05-15T06:41:22.255Z,14.35
2018-05-15T06:43:49.846Z,13.70
2018-05-15T06:46:17.295Z,12.02
2018-05-15T06:48:44.734Z,13.48
2018-05-15T06:51:12.207Z,13.90
2018-05-15T06:53:39.648Z,12.57
2018-05-15T06:56:07.099Z,13.75
2018-05-15T06:58:35.306Z,11.38
2018-05-15T07:01:03.798Z,12.57
2018-05-15T07:03:31.362Z,11.63
2018-05-15T07:05:58.796Z,12.80
2018-05-15T07:08:26.306Z,12.55
2018-05-15T07:10:53.738Z,11.93
2018-05-15T07:13:21.163Z,12.13
2018-05-15T07:15:49.979Z,10.52
2018-05-15T07:18:17.421Z,11.75
2018-05-15T07:20:45.195Z,10.32
2018-05-15T07:23:12.751Z,10.90
2018-05-15T07:25:40.187Z,12.25
2018-05-15T07:28:07.670Z,11.40
2018-05-15T07:30:35.129Z,10.93
2018-05-15T07:33:02.640Z,10.48
2018-05-15T07:35:30.298Z,8.98
2018-05-15T07:37:57.674Z,8.88
2018-05-15T07:40:25.105Z,8.65
2018-05-15T07:42:54.080Z,9.07
2018-05-15T07:45:21.527Z,8.13
2018-05-15T07:47:50.015Z,8.73
2018-05-15T07:50:17.439Z,8.82
2018-05-15T07:52:44.907Z,9.23
2018-05-15T07:55:12.332Z,8.48
2018-05-15T07:57:40.518Z,7.87
2018-05-15T08:00:07.951Z,7.87
2018-05-15T08:02:36.202Z,8.52
2018-05-15T08:05:03.627Z,7.43
2018-05-15T08:07:31.050Z,7.75
2018-05-15T08:09:59.249Z,7.87
2018-05-15T08:12:26.674Z,7.07
2018-05-15T08:14:54.247Z,7.32
2018-05-15T08:17:22.442Z,7.85
2018-05-15T08:19:49.874Z,9.18
2018-05-15T08:22:18.107Z,8.82
2018-05-15T08:24:45.494Z,8.15
2018-05-15T08:27:12.927Z,7.65
2018-05-15T08:29:41.126Z,6.68
2018-05-15T08:32:09.318Z,9.27
2018-05-15T08:34:37.515Z,9.30
2018-05-15T08:37:05.303Z,6.28
2018-05-15T08:39:32.728Z,6.32
2018-05-15T08:42:00.158Z,7.30
2018-05-15T08:44:27.670Z,7.85
2018-05-15T08:46:55.111Z,8.23
2018-05-15T08:49:22.539Z,8.07
2018-05-15T08:51:50.742Z,6.97
2018-05-15T08:54:18.350Z,6.47
2018-05-15T08:56:45.782Z,7.32
2018-05-15T08:59:13.208Z,6.00
2018-05-15T09:01:41.398Z,5.10
2018-05-15T09:04:08.864Z,5.10
2018-05-15T09:06:36.355Z,5.55
2018-05-15T09:09:03.801Z,6.05
2018-05-15T09:11:31.294Z,6.68
2018-05-15T09:13:58.716Z,6.07
2018-05-15T09:16:26.147Z,5.55
2018-05-15T09:18:53.594Z,5.30
2018-05-15T09:21:21.034Z,5.10
2018-05-15T09:23:49.249Z,5.22
2018-05-15T09:26:16.695Z,4.93
2018-05-15T09:28:44.171Z,4.80
2018-05-15T09:31:12.554Z,5.12
2018-05-15T09:33:40.002Z,4.53
2018-05-15T09:36:07.411Z,4.80
2018-05-15T09:38:34.838Z,5.32
2018-05-15T09:41:03.458Z,4.82
2018-05-15T09:43:54.494Z,4.50
2018-05-15T09:46:21.957Z,4.45
2018-05-15T09:48:50.144Z,4.50
2018-05-15T09:51:17.706Z,4.15
2018-05-15T09:53:45.190Z,4.47
2018-05-15T09:56:12.615Z,4.70
2018-05-15T09:58:40.385Z,4.15
2018-05-15T10:01:07.854Z,4.50
2018-05-15T10:03:35.286Z,3.95
2018-05-15T10:06:02.706Z,4.53
2018-05-15T10:08:31.778Z,4.43
2018-05-15T10:10:59.219Z,4.07
2018-05-15T10:13:26.639Z,3.78
2018-05-15T10:15:54.850Z,3.80
2018-05-15T10:18:22.281Z,3.42
2018-05-15T10:20:50.586Z,4.07
2018-05-15T10:23:18.088Z,3.62
2018-05-15T10:25:45.510Z,4.10
2018-05-15T10:28:12.931Z,3.50
2018-05-15T10:30:41.278Z,3.80
2018-05-15T10:33:08.702Z,3.95
2018-05-15T10:35:36.575Z,3.65
2018-05-15T10:38:04.283Z,3.53
2018-05-15T10:40:32.478Z,3.35
2018-05-15T10:42:59.902Z,3.75
2018-05-15T10:45:27.862Z,3.62
2018-05-15T10:47:55.292Z,3.95
2018-05-15T10:50:22.795Z,3.72
2018-05-15T10:52:50.306Z,3.75
2018-05-15T10:55:17.740Z,3.70
2018-05-15T10:57:45.254Z,4.22
2018-05-15T11:00:12.692Z,3.72
2018-05-15T11:02:40.111Z,3.87
2018-05-15T11:05:07.570Z,4.30
2018-05-15T11:07:34.993Z,3.92
2018-05-15T11:10:02.454Z,3.97
2018-05-15T11:12:29.990Z,4.10
2018-05-15T11:14:57.525Z,3.70
2018-05-15T11:17:24.941Z,3.85
2018-05-15T11:20:04.913Z,3.70
2018-05-15T11:22:44.454Z,3.80
2018-05-15T11:25:12.037Z,3.72
2018-05-15T11:27:39.458Z,3.60
2018-05-15T11:30:07.680Z,3.95
2018-05-15T11:32:35.099Z,3.62
2018-05-15T11:35:03.286Z,3.78
2018-05-15T11:37:30.730Z,4.10
2018-05-15T11:39:58.916Z,3.70
2018-05-15T11:42:26.351Z,4.15
2018-05-15T11:44:54.547Z,4.20
2018-05-15T11:47:22.775Z,4.35
2018-05-15T11:49:50.741Z,3.90
2018-05-15T11:52:19.223Z,3.75
2018-05-15T11:54:45.839Z,4.10
2018-05-15T11:57:13.323Z,4.20
2018-05-15T11:59:40.832Z,3.72
2018-05-15T12:02:08.186Z,4.03
2018-05-15T12:04:36.958Z,3.58
2018-05-15T12:07:05.172Z,3.62
2018-05-15T12:09:32.575Z,3.62
2018-05-15T12:12:00.783Z,4.10
2018-05-15T12:14:28.207Z,3.67
2018-05-15T12:16:55.727Z,3.45
2018-05-15T12:19:23.923Z,3.20
2018-05-15T12:21:51.342Z,3.92
2018-05-15T12:24:18.822Z,3.62
2018-05-15T12:26:46.237Z,3.90
2018-05-15T12:29:14.659Z,3.70
2018-05-15T12:31:42.101Z,3.90
2018-05-15T12:34:09.545Z,3.70
2018-05-15T12:36:36.998Z,3.85
2018-05-15T12:39:04.431Z,3.70
2018-05-15T12:41:32.101Z,3.87
2018-05-15T12:43:59.399Z,3.87
2018-05-15T12:46:26.828Z,3.95
2018-05-15T12:48:55.758Z,3.70
2018-05-15T12:51:23.239Z,3.85
2018-05-15T12:53:50.667Z,3.65
2018-05-15T12:56:18.158Z,3.90
2018-05-15T12:58:45.582Z,3.75
2018-05-15T13:01:13.070Z,4.05
2018-05-15T13:03:40.499Z,3.53
2018-05-15T13:06:07.934Z,4.03
2018-05-15T13:08:35.428Z,4.60
2018-05-15T13:11:02.854Z,3.58
2018-05-15T13:13:30.274Z,3.53
2018-05-15T13:15:57.782Z,3.80
2018-05-15T13:18:25.475Z,3.60
2018-05-15T13:20:52.798Z,3.85
2018-05-15T13:23:20.226Z,3.72
2018-05-15T13:25:48.638Z,3.85
2018-05-15T13:28:16.140Z,4.07
2018-05-15T13:33:23.727Z,4.00
2018-05-15T13:35:51.198Z,4.10
2018-05-15T13:38:18.627Z,4.22
2018-05-15T13:40:46.104Z,4.18
2018-05-15T13:43:13.530Z,4.35
2018-05-15T13:45:40.986Z,4.60
2018-05-15T13:48:08.446Z,4.30
2018-05-15T13:50:35.939Z,3.90
2018-05-15T13:53:03.350Z,4.28
2018-05-15T13:55:31.033Z,4.60
2018-05-15T13:57:58.603Z,4.50
2018-05-15T14:00:26.026Z,3.85
2018-05-15T14:02:54.743Z,3.97
2018-05-15T14:05:22.166Z,3.90
2018-05-15T14:07:50.350Z,3.65
2018-05-15T14:10:17.835Z,4.03
2018-05-15T14:12:45.267Z,3.83
2018-05-15T14:15:12.690Z,4.25
2018-05-15T14:17:40.214Z,4.35
2018-05-15T14:20:08.402Z,3.62
2018-05-15T14:22:35.986Z,3.67
2018-05-15T14:25:04.188Z,3.53
2018-05-15T14:27:32.429Z,3.60
2018-05-15T14:30:00.135Z,3.60
2018-05-15T14:32:28.313Z,3.75
2018-05-15T14:34:55.742Z,3.62
2018-05-15T14:37:23.451Z,3.72
2018-05-15T14:39:50.874Z,3.83
2018-05-15T14:42:31.113Z,3.33
2018-05-15T14:44:59.326Z,3.75
2018-05-15T14:47:26.907Z,3.40
2018-05-15T14:49:54.330Z,4.20
2018-05-15T14:52:22.563Z,3.12
2018-05-15T14:54:50.011Z,3.75
2018-05-15T14:57:17.447Z,3.90
2018-05-15T14:59:44.910Z,3.60
2018-05-15T15:02:12.987Z,3.92
2018-05-15T15:04:41.415Z,3.60
2018-05-15T15:07:09.606Z,4.10
2018-05-15T15:09:37.795Z,3.83
2018-05-15T15:12:05.273Z,4.10
2018-05-15T15:14:32.836Z,3.65
2018-05-15T15:17:00.274Z,4.00
2018-05-15T15:19:27.870Z,3.90
2018-05-15T15:21:55.307Z,3.83
2018-05-15T15:24:22.745Z,3.80
2018-05-15T15:26:50.237Z,3.58
2018-05-15T15:29:17.701Z,3.78
2018-05-15T15:31:45.122Z,4.53
2018-05-15T15:34:12.577Z,3.87
2018-05-15T15:36:40.010Z,3.70
2018-05-15T15:39:08.479Z,3.62
2018-05-15T15:41:36.681Z,3.80
2018-05-15T15:44:04.088Z,4.45
2018-05-15T15:46:31.522Z,4.78
2018-05-15T15:48:58.948Z,3.78
2018-05-15T15:51:27.199Z,3.60
2018-05-15T15:53:54.730Z,3.83
2018-05-15T15:56:22.158Z,3.90
2018-05-15T15:58:49.581Z,4.00
2018-05-15T16:01:17.007Z,3.95
2018-05-15T16:03:44.757Z,5.00
2018-05-15T16:06:12.259Z,3.85
2018-05-15T16:08:39.706Z,4.10
2018-05-15T16:11:07.164Z,3.80
2018-05-15T16:13:35.415Z,3.83
2018-05-15T16:16:02.906Z,4.28
2018-05-15T16:18:30.345Z,4.35
2018-05-15T16:20:57.785Z,4.30
2018-05-15T16:23:31.111Z,4.18
2018-05-15T16:25:58.690Z,4.37
2018-05-15T16:28:26.114Z,5.00
2018-05-15T16:30:53.543Z,4.95
2018-05-15T16:33:21.847Z,5.00
2018-05-15T16:35:50.430Z,4.72
2018-05-15T16:38:17.976Z,5.10
2018-05-15T16:40:46.469Z,5.18
2018-05-15T16:43:14.863Z,4.87
2018-05-15T16:45:42.309Z,4.50
2018-05-15T16:48:09.740Z,4.50
2018-05-15T16:50:39.281Z,4.30
2018-05-15T16:53:06.826Z,4.70
2018-05-15T16:55:35.846Z,4.90
2018-05-15T16:58:03.254Z,4.72
2018-05-15T17:00:32.327Z,4.80
2018-05-15T17:03:00.524Z,4.57
2018-05-15T17:05:28.858Z,4.68
2018-05-15T17:08:02.273Z,4.75
2018-05-15T17:10:30.576Z,4.10
2018-05-15T17:12:59.086Z,5.10
2018-05-15T17:15:28.435Z,4.62
2018-05-15T17:17:55.860Z,4.62
2018-05-15T17:20:23.503Z,4.32
2018-05-15T17:22:51.114Z,4.90
2018-05-15T17:25:19.314Z,4.80
2018-05-15T17:27:47.678Z,4.75
2018-05-15T17:30:15.866Z,5.57
2018-05-15T17:32:43.288Z,4.87
2018-05-15T17:35:10.733Z,4.60
2018-05-15T17:37:38.167Z,4.93
2018-05-15T17:40:05.639Z,5.20
2018-05-15T17:42:34.723Z,4.55
2018-05-15T17:45:03.062Z,4.82
2018-05-15T17:47:31.361Z,4.65
2018-05-15T17:49:58.682Z,4.60
2018-05-15T17:52:27.225Z,4.68
2018-05-15T17:54:55.315Z,4.50
2018-05-15T17:57:23.078Z,4.65
2018-05-15T17:59:50.574Z,5.22
2018-05-15T18:02:17.975Z,4.50
2018-05-15T18:04:45.455Z,4.93
2018-05-15T18:07:13.012Z,5.12
2018-05-15T18:09:40.435Z,4.50
2018-05-15T18:12:07.931Z,4.72
2018-05-15T18:14:35.413Z,4.70
2018-05-15T18:17:03.603Z,5.20
2018-05-15T18:19:31.913Z,4.70
2018-05-15T18:22:00.036Z,5.75
2018-05-15T18:24:27.450Z,5.03
2018-05-15T18:26:54.883Z,5.32
2018-05-15T18:29:22.310Z,4.85
2018-05-15T18:31:51.498Z,5.18
2018-05-15T18:34:19.759Z,5.05
2018-05-15T18:36:49.936Z,4.82
2018-05-15T18:39:19.366Z,4.70
2018-05-15T18:41:46.798Z,5.30
2018-05-15T18:44:14.295Z,4.62
2018-05-15T18:46:41.733Z,4.32
2018-05-15T18:49:09.158Z,4.53
2018-05-15T18:51:37.350Z,5.40
2018-05-15T18:54:05.041Z,4.62
2018-05-15T18:56:32.478Z,5.40
2018-05-15T18:59:00.802Z,5.20
2018-05-15T19:01:28.703Z,4.65
2018-05-15T19:04:10.155Z,5.32
2018-05-15T19:06:37.689Z,5.22
2018-05-15T19:09:06.020Z,5.18
2018-05-15T19:11:34.218Z,4.78
2018-05-15T19:14:01.920Z,4.85
2018-05-15T19:16:30.046Z,5.03
2018-05-15T19:18:57.503Z,4.87
2018-05-15T19:21:24.985Z,5.28
2018-05-15T19:23:52.415Z,5.25
2018-05-15T19:26:19.859Z,4.97
2018-05-15T19:28:48.073Z,4.75
2018-05-15T19:31:16.287Z,4.85
2018-05-15T19:33:49.449Z,5.22
2018-05-15T19:36:16.875Z,4.80
2018-05-15T19:38:44.776Z,4.93
2018-05-15T19:41:18.019Z,5.40
2018-05-15T19:43:46.444Z,5.27
2018-05-15T19:46:14.062Z,4.77
2018-05-15T19:48:42.327Z,5.07
2018-05-15T19:51:10.153Z,5.40
2018-05-15T19:53:37.583Z,4.80
2018-05-15T19:56:06.326Z,4.80
2018-05-15T19:58:35.266Z,4.80
2018-05-15T20:01:02.690Z,4.83
2018-05-15T20:03:30.122Z,4.90
2018-05-15T20:05:57.766Z,5.03
2018-05-15T20:08:25.195Z,5.62
2018-05-15T20:10:52.676Z,4.93
2018-05-15T20:13:20.086Z,4.82
2018-05-15T20:15:48.274Z,5.03
2018-05-15T20:18:16.471Z,5.17
2018-05-15T20:20:43.942Z,5.50
2018-05-15T20:23:11.373Z,4.77
2018-05-15T20:25:38.875Z,5.03
2018-05-15T20:28:06.334Z,5.50
2018-05-15T20:30:33.764Z,5.33
2018-05-15T20:33:01.191Z,4.73
2018-05-15T20:35:29.384Z,4.90
2018-05-15T20:37:56.819Z,5.43
2018-05-15T20:40:25.016Z,5.10
2018-05-15T20:42:52.501Z,4.83
2018-05-15T20:45:20.110Z,4.87
2018-05-15T20:47:48.298Z,5.80
2018-05-15T20:50:16.481Z,5.33
2018-05-15T20:52:43.971Z,5.53
2018-05-15T20:55:11.399Z,5.30
2018-05-15T20:57:38.825Z,5.07
2018-05-15T21:00:06.255Z,5.23
2018-05-15T21:02:33.690Z,5.30
2018-05-15T21:05:01.119Z,4.60
2018-05-15T21:07:29.302Z,5.30
2018-05-15T21:09:57.092Z,5.23
2018-05-15T21:12:24.518Z,5.23
2018-05-15T21:14:52.728Z,5.20
2018-05-15T21:17:20.198Z,5.90
2018-05-15T21:19:47.628Z,5.67
2018-05-15T21:22:15.050Z,5.50
2018-05-15T21:24:43.518Z,4.93
2018-05-15T21:27:11.108Z,5.33
2018-05-15T21:29:39.298Z,5.17
2018-05-15T21:32:06.810Z,5.43
2018-05-15T21:34:34.245Z,5.23
2018-05-15T21:37:02.435Z,5.63
2018-05-15T21:39:29.863Z,5.40
2018-05-15T21:41:57.292Z,5.30
2018-05-15T21:44:25.475Z,5.60
2018-05-15T21:46:52.931Z,5.67
2018-05-15T21:49:20.367Z,5.77
2018-05-15T21:51:48.682Z,6.10
2018-05-15T21:54:16.110Z,5.40
2018-05-15T21:56:44.316Z,5.53
2018-05-15T21:59:11.983Z,5.43
2018-05-15T22:01:39.408Z,5.20
2018-05-15T22:04:06.856Z,5.37
2018-05-15T22:06:35.178Z,5.73
2018-05-15T22:09:02.603Z,5.30
2018-05-15T22:11:29.571Z,4.93
2018-05-15T22:14:08.882Z,6.00
2018-05-15T22:16:48.327Z,5.60
2018-05-15T22:19:27.901Z,5.60
2018-05-15T22:22:07.158Z,5.43
2018-05-15T22:24:34.598Z,5.20
2018-05-15T22:27:02.013Z,5.97
2018-05-15T22:29:29.439Z,5.60
2018-05-15T22:31:56.954Z,6.27
2018-05-15T22:34:24.370Z,6.60
2018-05-15T22:36:52.558Z,6.27
2018-05-15T22:39:20.124Z,6.57
2018-05-15T22:41:47.535Z,6.47
2018-05-15T22:44:14.966Z,6.93
2018-05-15T22:46:42.394Z,6.43
2018-05-15T22:49:09.876Z,6.20
2018-05-15T22:51:37.298Z,6.97
2018-05-15T22:54:05.594Z,6.60
2018-05-15T22:56:33.017Z,7.03
2018-05-15T22:59:01.204Z,7.03
2018-05-15T23:01:29.401Z,7.57
2018-05-15T23:03:56.854Z,8.23
2018-05-15T23:06:24.587Z,6.93
2018-05-15T23:08:52.110Z,7.40
2018-05-15T23:11:19.572Z,8.10
2018-05-15T23:13:47.014Z,7.23
2018-05-15T23:16:14.435Z,7.60
2018-05-15T23:18:42.815Z,7.07
2018-05-15T23:21:11.004Z,7.43
2018-05-15T23:23:38.467Z,7.03
2018-05-15T23:26:05.907Z,7.77
2018-05-15T23:28:34.124Z,7.63
2018-05-15T23:31:01.602Z,7.40
2018-05-15T23:33:29.109Z,6.80
2018-05-15T23:35:57.297Z,7.63
2018-05-15T23:38:24.710Z,6.83
2018-05-15T23:40:52.909Z,7.10
2018-05-15T23:43:21.226Z,7.10
2018-05-15T23:45:48.675Z,7.53
2018-05-15T23:48:16.138Z,7.27
2018-05-15T23:50:43.571Z,7.03
2018-05-15T23:53:11.050Z,7.03
2018-05-15T23:55:38.574Z,6.67
2018-05-15T23:58:06.791Z,6.33
